Time;durP1;ratioP1;P1;durP2;ratioP2;P2;SDS_P1;SDS_P2;PMS_P1;PMS_P2;Temp;Humidity;BMP_temperature;BMP_pressure;BME280_temperature;BME280_humidity;BME280_pressure;Samples;Min_cycle;Max_cycle;Signal;HPM_P1;HPM_P2
2023/08/11 00:02:22;;;;;;;10.50;5.20;;;;;;;16.83;53.57;100583.98;102738;1259;137764;-70
2023/08/11 00:04:50;;;;;;;8.10;4.70;;;;;;;16.78;53.57;100584.75;102901;1262;97891;-69
2023/08/11 00:07:17;;;;;;;7.60;5.30;;;;;;;16.76;53.72;100582.44;103992;1258;138528;-69
2023/08/11 00:09:44;;;;;;;14.00;5.80;;;;;;;16.73;53.70;100584.38;103057;1259;107768;-69
2023/08/11 00:12:11;;;;;;;12.30;5.80;;;;;;;16.71;53.79;100584.66;102818;1257;98334;-69
2023/08/11 00:14:38;;;;;;;10.70;6.10;;;;;;;16.68;53.91;100582.49;102679;1259;137786;-69
2023/08/11 00:17:06;;;;;;;11.20;5.90;;;;;;;16.66;53.97;100579.77;102832;1259;97681;-69
2023/08/11 00:19:33;;;;;;;13.10;6.10;;;;;;;16.62;54.08;100580.48;102000;1258;1003230;-69
2023/08/11 00:22:01;;;;;;;10.50;5.60;;;;;;;16.59;54.25;100579.08;102812;1264;107683;-68
2023/08/11 00:24:28;;;;;;;12.50;5.90;;;;;;;16.55;54.27;100577.89;102871;1259;97685;-69
2023/08/11 00:26:56;;;;;;;7.80;5.70;;;;;;;16.50;54.35;100572.33;102701;1259;137878;-70
2023/08/11 00:29:24;;;;;;;6.70;5.50;;;;;;;16.48;54.45;100577.73;102687;1260;97796;-70
2023/08/11 00:31:51;;;;;;;12.20;6.10;;;;;;;16.45;54.73;100571.39;102743;1259;137688;-70
2023/08/11 00:34:18;;;;;;;7.80;4.70;;;;;;;16.44;54.75;100575.45;102705;1265;108060;-70
2023/08/11 00:36:46;;;;;;;7.00;4.60;;;;;;;16.43;54.86;100571.13;102800;1259;98126;-70
2023/08/11 00:39:13;;;;;;;8.00;5.70;;;;;;;16.42;54.89;100572.40;102702;1259;137421;-68
2023/08/11 00:41:40;;;;;;;9.20;5.00;;;;;;;16.40;54.95;100571.80;103575;1259;97894;-69
2023/08/11 00:44:08;;;;;;;9.00;5.40;;;;;;;16.39;55.07;100572.05;103639;1258;139997;-68
2023/08/11 00:46:37;;;;;;;10.40;5.40;;;;;;;16.37;55.34;100569.17;102727;1263;107606;-69
2023/08/11 00:49:04;;;;;;;8.40;5.20;;;;;;;16.36;55.37;100574.51;102750;1259;138178;-68
2023/08/11 00:51:33;;;;;;;10.40;5.60;;;;;;;16.32;55.48;100569.37;102834;1259;107556;-68
2023/08/11 00:54:01;;;;;;;11.00;5.80;;;;;;;16.29;55.54;100573.36;102662;1264;97803;-67
2023/08/11 00:56:29;;;;;;;10.00;5.80;;;;;;;16.25;55.79;100573.46;102679;1259;137877;-69
2023/08/11 00:58:57;;;;;;;9.80;5.50;;;;;;;16.19;55.83;100570.24;102764;1259;108221;-69
2023/08/11 01:01:24;;;;;;;8.70;5.80;;;;;;;16.14;56.07;100571.36;102619;1264;138292;-68
2023/08/11 01:03:51;;;;;;;8.90;4.90;;;;;;;16.07;56.16;100567.35;102919;1259;108601;-69
2023/08/11 01:06:29;;;;;;;10.00;5.30;;;;;;;16.02;56.27;100566.20;103080;1260;97807;-69
2023/08/11 01:09:03;;;;;;;7.80;5.70;;;;;;;15.98;56.44;100569.00;102111;1259;1002421;-68
2023/08/11 01:11:42;;;;;;;10.30;5.40;;;;;;;15.93;56.54;100569.56;102768;1259;108257;-68
2023/08/11 01:14:16;;;;;;;11.80;5.50;;;;;;;15.90;56.69;100570.48;102624;1264;138463;-69
2023/08/11 01:16:47;;;;;;;11.30;5.70;;;;;;;15.85;56.81;100571.59;102827;1259;109702;-69
2023/08/11 01:19:18;;;;;;;9.90;5.60;;;;;;;15.83;56.92;100574.67;102667;1263;140175;-69
2023/08/11 01:21:49;;;;;;;8.60;5.50;;;;;;;15.81;56.94;100571.27;102728;1263;112462;-69
2023/08/11 01:24:17;;;;;;;13.50;5.60;;;;;;;15.78;56.96;100569.12;103488;1258;107612;-69
2023/08/11 01:26:44;;;;;;;11.00;5.30;;;;;;;15.75;57.21;100566.83;102688;1259;138600;-70
2023/08/11 01:29:13;;;;;;;10.80;5.10;;;;;;;15.71;57.24;100566.64;102846;1259;108854;-70
2023/08/11 01:31:39;;;;;;;8.30;5.30;;;;;;;15.67;57.41;100561.55;103140;1259;138713;-70
2023/08/11 01:34:07;;;;;;;7.60;5.40;;;;;;;15.63;57.45;100560.38;102852;1259;111691;-69
2023/08/11 01:36:36;;;;;;;9.60;4.70;;;;;;;15.59;57.56;100557.19;102783;1264;108604;-69
2023/08/11 01:39:05;;;;;;;11.40;6.10;;;;;;;15.56;57.61;100555.60;102641;1264;139667;-69
2023/08/11 01:41:33;;;;;;;10.50;4.90;;;;;;;15.52;57.84;100561.02;103046;1259;107376;-69
2023/08/11 01:44:01;;;;;;;11.40;5.10;;;;;;;15.50;57.82;100560.11;102702;1259;139756;-69
2023/08/11 01:46:29;;;;;;;7.90;5.70;;;;;;;15.48;57.94;100560.73;103775;1259;112399;-69
2023/08/11 01:48:58;;;;;;;7.90;5.50;;;;;;;15.47;58.02;100558.52;103362;1262;107613;-70
2023/08/11 01:51:27;;;;;;;9.50;5.10;;;;;;;15.44;57.99;100559.14;102867;1259;97688;-69
2023/08/11 01:53:54;;;;;;;10.20;5.10;;;;;;;15.42;58.10;100558.69;103313;1259;1002710;-69
2023/08/11 01:56:22;;;;;;;10.40;5.40;;;;;;;15.40;58.32;100557.95;104197;1259;139459;-69
2023/08/11 01:58:50;;;;;;;10.80;5.40;;;;;;;15.36;58.32;100555.66;102859;1264;110636;-69
2023/08/11 02:01:18;;;;;;;8.20;5.70;;;;;;;15.34;58.41;100557.16;102716;1264;138715;-69
2023/08/11 02:03:45;;;;;;;8.60;5.60;;;;;;;15.32;58.52;100555.33;102877;1259;97959;-69
2023/08/11 02:06:12;;;;;;;9.40;5.30;;;;;;;15.31;58.45;100556.63;102862;1258;107396;-69
2023/08/11 02:08:40;;;;;;;8.00;5.00;;;;;;;15.30;58.44;100557.19;102710;1259;138635;-69
2023/08/11 02:11:08;;;;;;;9.30;5.30;;;;;;;15.27;58.61;100555.21;102821;1263;110719;-68
2023/08/11 02:13:35;;;;;;;10.10;5.20;;;;;;;15.25;58.75;100561.98;103187;1262;138876;-69
2023/08/11 02:16:03;;;;;;;9.40;5.20;;;;;;;15.20;58.80;100558.36;102858;1264;97829;-69
2023/08/11 02:18:30;;;;;;;9.40;4.90;;;;;;;15.15;58.92;100561.72;103788;1259;107375;-69
2023/08/11 02:20:58;;;;;;;6.40;5.00;;;;;;;15.13;59.11;100561.15;104183;1257;138479;-70
2023/08/11 02:23:25;;;;;;;10.90;5.10;;;;;;;15.09;59.29;100563.90;103351;1258;1002561;-70
2023/08/11 02:25:51;;;;;;;9.00;5.60;;;;;;;15.06;59.40;100564.74;103064;1263;138998;-70
2023/08/11 02:28:19;;;;;;;9.60;5.40;;;;;;;15.02;59.55;100566.16;102814;1259;98444;-69
2023/08/11 02:30:46;;;;;;;8.00;5.30;;;;;;;14.98;59.68;100568.27;102803;1259;107721;-69
2023/08/11 02:33:18;;;;;;;12.30;5.80;;;;;;;14.95;59.76;100565.48;102679;1263;138699;-69
2023/08/11 02:35:45;;;;;;;9.20;5.70;;;;;;;14.90;59.94;100570.23;102088;1263;1003052;-69
2023/08/11 02:38:15;;;;;;;10.70;5.40;;;;;;;14.84;60.26;100572.96;102719;1264;140108;-69
2023/08/11 02:40:42;;;;;;;9.10;6.00;;;;;;;14.77;60.45;100573.62;102775;1260;98317;-69
2023/08/11 02:43:10;;;;;;;11.50;6.10;;;;;;;14.71;60.66;100571.58;102714;1259;138544;-69
2023/08/11 02:45:36;;;;;;;9.70;6.10;;;;;;;14.68;60.74;100574.17;102740;1259;97715;-69
2023/08/11 02:48:04;;;;;;;10.20;6.60;;;;;;;14.64;60.94;100578.55;102846;1259;111481;-69
2023/08/11 02:50:31;;;;;;;8.60;6.40;;;;;;;14.59;61.22;100573.20;102625;1259;138884;-69
2023/08/11 02:53:01;;;;;;;11.30;5.90;;;;;;;14.55;61.33;100576.48;102844;1264;99570;-70
2023/08/11 02:55:28;;;;;;;10.70;6.10;;;;;;;14.51;61.34;100580.50;102728;1258;138785;-69
2023/08/11 02:57:55;;;;;;;8.70;5.60;;;;;;;14.47;61.66;100580.52;102830;1259;97799;-70
2023/08/11 03:00:22;;;;;;;9.30;5.90;;;;;;;14.43;61.74;100579.81;102711;1259;111550;-69
2023/08/11 03:02:49;;;;;;;11.70;5.60;;;;;;;14.38;61.83;100583.66;102756;1264;138483;-70
2023/08/11 03:05:17;;;;;;;8.80;5.70;;;;;;;14.35;61.98;100586.59;102806;1259;98271;-70
2023/08/11 03:07:51;;;;;;;10.10;6.30;;;;;;;14.31;62.01;100588.48;102777;1259;138312;-70
2023/08/11 03:10:19;;;;;;;11.10;5.80;;;;;;;14.32;62.17;100592.49;102850;1259;97792;-70
2023/08/11 03:12:47;;;;;;;9.30;5.80;;;;;;;14.30;62.22;100593.77;102899;1264;110186;-70
2023/08/11 03:15:14;;;;;;;8.60;5.30;;;;;;;14.31;62.15;100595.66;102659;1259;138329;-70
2023/08/11 03:17:51;;;;;;;11.90;6.10;;;;;;;14.32;62.22;100593.69;102840;1259;97857;-70
2023/08/11 03:20:18;;;;;;;10.90;6.50;;;;;;;14.34;62.14;100596.58;102700;1263;138445;-70
2023/08/11 03:22:46;;;;;;;12.60;5.90;;;;;;;14.35;62.26;100595.84;102778;1264;97807;-70
2023/08/11 03:25:16;;;;;;;12.70;6.40;;;;;;;14.37;62.15;100596.48;102790;1264;141252;-70
2023/08/11 03:27:44;;;;;;;10.30;5.50;;;;;;;14.39;62.19;100600.40;101940;1264;1002893;-70
2023/08/11 03:30:16;;;;;;;10.20;5.70;;;;;;;14.43;62.17;100598.69;102744;1259;98316;-70
2023/08/11 03:32:46;;;;;;;10.40;5.70;;;;;;;14.43;62.01;100598.69;102577;1259;138534;-70
2023/08/11 03:35:14;;;;;;;7.20;5.20;;;;;;;14.45;62.15;100601.23;102785;1264;97796;-70
2023/08/11 03:37:41;;;;;;;12.80;5.80;;;;;;;14.47;62.02;100604.13;101841;1265;1003273;-70
2023/08/11 03:40:12;;;;;;;10.00;5.50;;;;;;;14.49;62.13;100604.39;102806;1259;108631;-70
2023/08/11 03:42:43;;;;;;;10.80;5.60;;;;;;;14.51;61.93;100603.77;104315;1258;95922;-70
2023/08/11 03:45:12;;;;;;;13.90;5.90;;;;;;;14.52;62.03;100601.64;103543;1262;138319;-70
2023/08/11 03:47:41;;;;;;;12.70;6.00;;;;;;;14.52;62.02;100598.99;102918;1259;97788;-70
2023/08/11 03:50:11;;;;;;;8.90;5.60;;;;;;;14.52;62.07;100602.14;102633;1259;138720;-69
2023/08/11 03:52:39;;;;;;;9.60;6.00;;;;;;;14.54;62.02;100599.48;104145;1262;107127;-70
2023/08/11 03:55:09;;;;;;;9.00;5.50;;;;;;;14.55;62.00;100595.05;102729;1259;138700;-69
2023/08/11 03:57:37;;;;;;;9.60;5.80;;;;;;;14.55;61.99;100598.39;102690;1259;107766;-70
2023/08/11 04:00:11;;;;;;;8.00;5.30;;;;;;;14.53;62.06;100597.59;102729;1259;97917;-69
2023/08/11 04:02:42;;;;;;;10.00;5.20;;;;;;;14.56;62.17;100599.02;102726;1263;138836;-70
2023/08/11 04:05:11;;;;;;;7.90;5.50;;;;;;;14.59;62.08;100595.41;102834;1259;107867;-70
2023/08/11 04:07:39;;;;;;;10.30;5.90;;;;;;;14.63;62.01;100593.98;102411;1259;1015764;-70
2023/08/11 04:10:10;;;;;;;8.30;5.60;;;;;;;14.68;62.09;100593.44;104266;1263;108514;-70
2023/08/11 04:12:37;;;;;;;12.80;5.90;;;;;;;14.73;61.99;100592.52;103361;1263;97811;-69
2023/08/11 04:15:05;;;;;;;12.80;6.40;;;;;;;14.79;62.09;100594.71;102788;1259;138483;-69
2023/08/11 04:17:33;;;;;;;10.00;5.70;;;;;;;14.83;61.89;100594.85;102737;1263;107782;-69
2023/08/11 04:20:04;;;;;;;8.50;5.40;;;;;;;14.87;61.86;100596.10;102731;1259;138852;-70
2023/08/11 04:22:35;;;;;;;14.70;5.90;;;;;;;14.92;61.91;100596.56;103710;1259;108378;-70
2023/08/11 04:25:06;;;;;;;9.10;5.50;;;;;;;14.97;61.79;100598.77;102643;1264;138957;-69
2023/08/11 04:27:32;;;;;;;10.90;5.60;;;;;;;15.05;61.69;100603.34;102836;1263;111180;-69
2023/08/11 04:30:00;;;;;;;9.20;5.10;;;;;;;15.16;61.70;100606.89;102868;1261;107749;-69
2023/08/11 04:32:27;;;;;;;10.40;5.50;;;;;;;15.24;61.49;100605.27;102758;1259;138418;-69
2023/08/11 04:34:54;;;;;;;11.50;5.60;;;;;;;15.35;61.29;100603.91;102884;1259;108168;-68
2023/08/11 04:37:22;;;;;;;9.70;5.30;;;;;;;15.47;61.15;100606.69;102706;1264;139397;-68
2023/08/11 04:39:50;;;;;;;14.20;5.50;;;;;;;15.57;60.75;100607.23;102739;1264;111277;-68
2023/08/11 04:42:17;;;;;;;13.00;6.40;;;;;;;15.66;60.48;100608.59;102872;1259;108568;-68
2023/08/11 04:44:44;;;;;;;10.90;5.40;;;;;;;15.77;60.25;100610.19;102673;1259;139166;-68
2023/08/11 04:47:12;;;;;;;9.70;5.40;;;;;;;15.84;60.06;100613.34;102918;1263;108524;-68
2023/08/11 04:49:40;;;;;;;10.30;5.10;;;;;;;15.94;59.86;100616.90;103583;1263;138514;-69
2023/08/11 04:52:08;;;;;;;13.10;5.70;;;;;;;16.04;59.71;100618.02;102802;1264;111501;-68
2023/08/11 04:54:35;;;;;;;12.70;6.00;;;;;;;16.12;59.45;100619.00;102850;1259;108342;-69
2023/08/11 04:57:02;;;;;;;9.60;5.40;;;;;;;16.25;59.36;100622.54;102705;1264;138699;-69
2023/08/11 04:59:30;;;;;;;8.60;5.40;;;;;;;16.43;59.19;100619.55;102784;1259;107657;-69
2023/08/11 05:01:56;;;;;;;10.80;5.70;;;;;;;16.68;59.14;100620.42;102658;1259;138514;-70
2023/08/11 05:04:23;;;;;;;10.10;5.60;;;;;;;17.23;59.29;100617.86;102834;1259;111874;-69
2023/08/11 05:06:51;;;;;;;9.60;5.50;;;;;;;18.51;58.77;100618.69;102759;1265;109389;-69
2023/08/11 05:09:18;;;;;;;10.50;5.50;;;;;;;20.59;56.56;100617.31;102724;1259;138449;-69
2023/08/11 05:11:45;;;;;;;13.30;5.50;;;;;;;22.27;53.01;100609.63;102753;1259;107923;-68
2023/08/11 05:14:14;;;;;;;10.30;5.10;;;;;;;23.13;50.94;100610.23;102597;1264;139451;-68
2023/08/11 05:16:41;;;;;;;7.00;4.70;;;;;;;24.87;48.77;100603.88;102832;1263;110604;-70
2023/08/11 05:19:08;;;;;;;9.70;5.10;;;;;;;26.62;46.07;100599.34;102686;1259;138095;-71
2023/08/11 05:21:36;;;;;;;8.70;5.10;;;;;;;28.22;43.63;100597.70;102854;1259;97788;-70
2023/08/11 05:24:04;;;;;;;9.40;5.20;;;;;;;29.70;41.18;100590.94;102867;1259;107484;-70
2023/08/11 05:26:31;;;;;;;7.50;4.70;;;;;;;30.98;39.09;100587.29;102688;1263;137850;-69
2023/08/11 05:28:57;;;;;;;8.70;4.70;;;;;;;32.12;37.00;100592.25;102881;1265;110935;-69
2023/08/11 05:31:25;;;;;;;9.80;4.80;;;;;;;33.13;35.40;100588.89;102761;1263;137981;-70
2023/08/11 05:33:52;;;;;;;10.30;4.70;;;;;;;34.08;33.68;100587.12;102810;1259;97785;-69
2023/08/11 05:36:19;;;;;;;8.80;4.90;;;;;;;34.90;32.29;100588.25;104306;1259;99042;-69
2023/08/11 05:38:46;;;;;;;9.40;4.40;;;;;;;35.58;31.03;100592.36;104207;1259;137722;-68
2023/08/11 05:41:13;;;;;;;9.00;4.20;;;;;;;36.28;30.01;100587.97;102919;1263;111518;-69
2023/08/11 05:43:40;;;;;;;8.90;4.40;;;;;;;36.84;28.98;100584.30;102685;1259;137885;-72
2023/08/11 05:46:07;;;;;;;8.20;4.20;;;;;;;37.46;28.11;100582.42;102761;1259;97799;-72
2023/08/11 05:48:35;;;;;;;12.50;8.00;;;;;;;38.12;27.36;100584.98;102849;1259;99088;-71
2023/08/11 05:51:02;;;;;;;10.20;5.90;;;;;;;38.91;26.86;100579.95;102733;1262;138062;-71
2023/08/11 05:53:30;;;;;;;7.30;4.60;;;;;;;39.60;25.72;100587.29;102830;1259;103678;-67
2023/08/11 05:55:57;;;;;;;8.90;4.60;;;;;;;40.04;24.80;100588.52;102685;1259;137876;-67
2023/08/11 05:58:24;;;;;;;8.90;6.40;;;;;;;40.48;24.13;100592.58;102816;1259;97866;-67
2023/08/11 06:00:51;;;;;;;6.60;4.70;;;;;;;40.89;23.42;100592.27;102818;1259;99080;-68
2023/08/11 06:03:18;;;;;;;7.00;4.50;;;;;;;41.36;23.04;100589.06;102668;1259;137635;-67
2023/08/11 06:05:46;;;;;;;5.30;3.70;;;;;;;41.81;22.35;100588.08;102824;1259;102783;-67
2023/08/11 06:08:13;;;;;;;11.40;5.70;;;;;;;42.14;21.82;100587.21;102765;1259;138027;-67
2023/08/11 06:10:40;;;;;;;10.20;4.30;;;;;;;42.43;21.29;100588.77;102812;1259;97917;-67
2023/08/11 06:13:08;;;;;;;7.30;4.10;;;;;;;42.72;20.95;100591.48;102792;1263;139671;-67
2023/08/11 06:15:35;;;;;;;10.30;4.20;;;;;;;43.03;20.54;100592.19;102886;1259;97663;-67
2023/08/11 06:18:02;;;;;;;8.40;3.90;;;;;;;43.22;20.11;100592.63;102875;1263;103749;-67
2023/08/11 06:20:29;;;;;;;6.30;4.00;;;;;;;43.29;19.66;100591.80;103032;1263;138372;-67
2023/08/11 06:23:08;;;;;;;8.80;3.80;;;;;;;43.51;19.59;100594.42;102794;1259;97914;-68
2023/08/11 06:25:35;;;;;;;7.40;4.20;;;;;;;43.82;19.11;100592.00;102663;1259;138084;-67
2023/08/11 06:28:02;;;;;;;7.90;4.50;;;;;;;44.10;18.88;100596.80;102873;1259;97796;-67
2023/08/11 06:30:30;;;;;;;7.20;3.60;;;;;;;44.31;18.56;100603.30;102848;1259;103877;-67
2023/08/11 06:32:57;;;;;;;5.30;3.40;;;;;;;44.47;18.25;100602.16;102755;1265;138480;-68
2023/08/11 06:35:25;;;;;;;6.60;2.90;;;;;;;44.58;18.23;100602.91;102875;1259;97793;-67
2023/08/11 06:37:53;;;;;;;7.70;3.30;;;;;;;44.60;17.74;100602.86;102721;1259;137683;-68
2023/08/11 06:40:20;;;;;;;7.60;3.40;;;;;;;44.69;17.63;100607.53;102841;1259;97786;-68
2023/08/11 06:42:47;;;;;;;7.20;3.30;;;;;;;44.86;17.91;100610.01;102946;1263;103871;-67
2023/08/11 06:45:17;;;;;;;13.70;4.40;;;;;;;45.10;17.71;100607.21;103614;1261;138389;-68
2023/08/11 06:47:44;;;;;;;8.30;3.20;;;;;;;45.42;17.24;100603.60;103998;1259;98019;-68
2023/08/11 06:50:12;;;;;;;7.10;2.70;;;;;;;45.50;16.96;100605.95;102780;1259;137690;-68
2023/08/11 06:52:39;;;;;;;10.00;4.10;;;;;;;45.74;16.66;100605.40;104169;1259;96032;-68
2023/08/11 06:55:08;;;;;;;6.80;2.90;;;;;;;46.07;16.53;100603.80;102747;1263;138090;-68
2023/08/11 06:57:36;;;;;;;8.00;3.00;;;;;;;46.30;16.29;100605.89;103059;1259;99077;-68
2023/08/11 07:00:07;;;;;;;4.90;2.50;;;;;;;46.27;15.71;100608.05;102933;1264;98660;-69
2023/08/11 07:02:34;;;;;;;4.90;2.60;;;;;;;46.08;15.73;100604.20;104135;1262;138411;-69
2023/08/11 07:05:02;;;;;;;5.70;2.70;;;;;;;46.29;15.87;100605.84;104320;1259;96465;-68
2023/08/11 07:07:29;;;;;;;6.60;2.70;;;;;;;46.56;15.51;100606.26;104197;1259;137836;-68
2023/08/11 07:09:56;;;;;;;5.90;2.50;;;;;;;46.48;14.96;100604.89;104114;1258;100269;-70
2023/08/11 07:12:25;;;;;;;3.70;1.80;;;;;;;45.85;14.45;100604.64;102830;1264;97894;-67
2023/08/11 07:14:52;;;;;;;6.60;2.00;;;;;;;45.18;14.17;100612.09;102734;1263;138745;-70
2023/08/11 07:17:19;;;;;;;3.10;2.20;;;;;;;44.86;14.75;100610.10;102781;1259;97680;-70
2023/08/11 07:19:46;;;;;;;3.20;1.90;;;;;;;45.02;14.75;100616.48;102681;1261;137556;-71
2023/08/11 07:22:13;;;;;;;4.70;1.70;;;;;;;45.36;14.79;100614.45;102797;1259;100183;-70
2023/08/11 07:24:40;;;;;;;2.60;1.80;;;;;;;45.20;14.38;100616.68;102872;1259;97922;-71
2023/08/11 07:27:07;;;;;;;5.20;1.50;;;;;;;45.16;14.63;100620.35;102754;1263;140045;-72
2023/08/11 07:29:35;;;;;;;2.90;1.70;;;;;;;45.41;14.79;100615.71;102788;1264;97811;-70
2023/08/11 07:32:04;;;;;;;7.30;2.30;;;;;;;45.77;14.39;100613.30;102661;1259;137883;-70
2023/08/11 07:34:30;;;;;;;3.00;2.00;;;;;;;46.16;14.68;100614.93;102707;1263;99154;-68
2023/08/11 07:36:57;;;;;;;8.20;2.80;;;;;;;46.66;14.26;100615.07;102885;1263;97813;-70
2023/08/11 07:39:25;;;;;;;5.60;1.70;;;;;;;46.89;14.31;100613.09;102715;1263;99720;-70
2023/08/11 07:41:52;;;;;;;3.10;2.00;;;;;;;47.20;14.33;100613.83;102736;1259;97813;-71
2023/08/11 07:44:20;;;;;;;4.80;2.00;;;;;;;47.43;14.05;100614.94;102673;1263;137772;-71
2023/08/11 07:46:47;;;;;;;7.10;2.10;;;;;;;47.60;13.89;100613.47;102692;1259;100432;-69
2023/08/11 07:49:15;;;;;;;4.40;1.80;;;;;;;47.77;13.91;100613.35;102713;1264;138022;-68
2023/08/11 07:51:44;;;;;;;2.00;1.60;;;;;;;47.94;13.72;100615.23;102656;1259;99999;-68
2023/08/11 07:54:11;;;;;;;5.70;1.70;;;;;;;47.84;13.49;100618.60;102800;1259;97763;-68
2023/08/11 07:56:38;;;;;;;4.40;1.70;;;;;;;47.36;13.17;100622.23;102688;1259;137801;-68
2023/08/11 07:59:06;;;;;;;4.40;2.00;;;;;;;47.09;13.55;100615.66;102835;1259;100516;-68
2023/08/11 08:01:33;;;;;;;2.80;1.80;;;;;;;47.31;13.66;100618.63;103086;1259;137958;-68
2023/08/11 08:04:01;;;;;;;6.60;2.20;;;;;;;47.20;13.25;100618.11;102790;1263;100081;-69
2023/08/11 08:06:28;;;;;;;4.50;1.90;;;;;;;46.94;13.32;100617.73;102608;1264;97831;-67
2023/08/11 08:08:57;;;;;;;7.80;1.60;;;;;;;46.81;13.26;100620.08;103861;1259;137698;-70
2023/08/11 08:11:24;;;;;;;2.90;1.70;;;;;;;46.46;13.16;100621.00;104014;1262;99964;-68
2023/08/11 08:13:51;;;;;;;5.40;1.90;;;;;;;46.18;13.28;100618.98;104176;1259;137750;-68
2023/08/11 08:16:18;;;;;;;3.10;1.50;;;;;;;46.09;13.39;100618.64;104228;1263;100223;-72
2023/08/11 08:18:46;;;;;;;3.60;1.80;;;;;;;45.82;13.88;100616.45;103310;1263;96654;-73
2023/08/11 08:21:13;;;;;;;4.80;1.80;;;;;;;45.56;13.59;100618.25;102798;1260;139368;-74
2023/08/11 08:23:40;;;;;;;4.40;1.90;;;;;;;45.02;13.88;100624.74;102985;1263;107844;-75
2023/08/11 08:26:09;;;;;;;2.60;1.60;;;;;;;44.82;14.12;100627.92;102650;1263;137865;-73
2023/08/11 08:28:37;;;;;;;5.80;2.10;;;;;;;44.73;14.44;100627.27;102675;1259;99411;-71
2023/08/11 08:31:04;;;;;;;5.00;1.70;;;;;;;44.66;14.56;100631.73;102671;1265;137818;-71
2023/08/11 08:33:31;;;;;;;4.50;1.80;;;;;;;44.61;14.54;100631.98;102794;1263;103798;-73
2023/08/11 08:35:59;;;;;;;5.00;1.80;;;;;;;44.67;14.60;100630.34;102701;1263;98790;-71
2023/08/11 08:38:26;;;;;;;3.20;1.90;;;;;;;44.63;14.67;100628.23;102493;1265;262110;-72
2023/08/11 08:40:53;;;;;;;6.60;1.50;;;;;;;44.45;14.90;100625.57;102733;1263;101530;-76
2023/08/11 08:43:21;;;;;;;4.80;1.40;;;;;;;44.31;15.06;100624.08;102611;1260;138018;-72
2023/08/11 08:45:52;;;;;;;3.80;1.70;;;;;;;44.17;14.95;100622.92;102789;1260;103863;-71
2023/08/11 08:48:26;;;;;;;3.40;1.50;;;;;;;43.98;14.82;100620.98;102716;1264;100048;-70
2023/08/11 08:50:54;;;;;;;2.80;1.50;;;;;;;43.77;14.91;100623.56;102654;1261;139161;-71
2023/08/11 08:53:21;;;;;;;4.10;1.40;;;;;;;43.54;14.90;100626.81;102805;1264;99133;-74
2023/08/11 08:55:48;;;;;;;5.20;1.70;;;;;;;43.19;15.19;100623.30;102776;1265;137918;-78
2023/08/11 08:58:16;;;;;;;6.00;1.70;;;;;;;42.80;15.34;100622.14;102711;1260;104369;-73
2023/08/11 09:00:43;;;;;;;4.60;1.70;;;;;;;42.39;15.49;100620.23;102816;1259;100897;-75
2023/08/11 09:03:11;;;;;;;5.10;2.00;;;;;;;42.06;15.66;100620.21;102581;1259;139349;-76
2023/08/11 09:05:39;;;;;;;4.60;1.70;;;;;;;41.64;16.04;100618.88;102911;1263;99590;-70
2023/08/11 09:08:06;;;;;;;5.30;1.80;;;;;;;41.09;16.17;100625.48;102761;1261;137760;-70
2023/08/11 09:10:36;;;;;;;4.10;1.70;;;;;;;40.57;15.79;100627.14;104298;1261;102309;-72
2023/08/11 09:13:03;;;;;;;5.20;1.40;;;;;;;39.76;15.48;100624.52;104134;1259;138804;-74
2023/08/11 09:15:31;;;;;;;3.20;1.60;;;;;;;39.06;16.19;100623.35;103009;1260;97795;-71
2023/08/11 09:17:59;;;;;;;2.60;1.70;;;;;;;38.63;16.90;100626.22;102848;1263;99332;-71
2023/08/11 09:20:28;;;;;;;3.60;1.40;;;;;;;38.30;17.36;100627.20;103827;1263;138220;-73
2023/08/11 09:22:56;;;;;;;4.20;1.50;;;;;;;38.13;17.64;100625.34;103543;1259;104218;-69
2023/08/11 09:25:23;;;;;;;3.70;1.40;;;;;;;38.17;18.14;100628.08;102728;1263;138010;-66
2023/08/11 09:27:52;;;;;;;7.90;1.80;;;;;;;38.13;17.89;100622.14;102899;1265;97805;-67
2023/08/11 09:30:20;;;;;;;3.90;1.90;;;;;;;38.00;17.89;100625.92;102979;1263;101247;-67
2023/08/11 09:32:50;;;;;;;2.20;1.30;;;;;;;37.90;17.73;100628.20;102716;1263;137889;-67
2023/08/11 09:35:23;;;;;;;2.60;1.50;;;;;;;37.75;18.05;100625.95;102934;1259;103502;-68
2023/08/11 09:37:51;;;;;;;1.90;1.20;;;;;;;37.74;18.27;100627.63;102829;1263;137863;-68
2023/08/11 09:40:19;;;;;;;3.20;1.80;;;;;;;37.83;17.96;100625.70;102916;1263;97922;-70
2023/08/11 09:42:46;;;;;;;4.60;1.70;;;;;;;37.95;18.10;100626.50;102940;1261;101132;-68
2023/08/11 09:45:14;;;;;;;5.20;1.90;;;;;;;37.96;17.97;100620.89;102821;1263;137952;-68
2023/08/11 09:47:41;;;;;;;2.50;1.50;;;;;;;38.03;18.18;100619.95;102851;1263;104608;-66
2023/08/11 09:50:10;;;;;;;4.20;1.50;;;;;;;38.15;17.91;100626.91;102718;1264;138015;-66
2023/08/11 09:52:38;;;;;;;3.90;1.70;;;;;;;37.86;18.04;100624.00;104243;1261;96402;-67
2023/08/11 09:55:09;;;;;;;15.30;2.20;;;;;;;37.80;18.45;100624.79;102776;1260;137961;-67
2023/08/11 09:57:38;;;;;;;4.30;1.90;;;;;;;37.66;18.36;100621.37;104036;1261;95879;-69
2023/08/11 10:00:11;;;;;;;4.20;1.60;;;;;;;37.33;18.54;100622.05;102753;1259;105054;-68
2023/08/11 10:02:40;;;;;;;5.90;1.70;;;;;;;37.24;18.63;100622.90;104140;1259;138415;-66
2023/08/11 10:05:11;;;;;;;5.40;1.70;;;;;;;37.13;18.64;100623.39;104279;1259;96014;-68
2023/08/11 10:07:43;;;;;;;4.00;1.80;;;;;;;36.94;18.53;100627.84;104144;1259;141353;-67
2023/08/11 10:10:14;;;;;;;5.30;1.80;;;;;;;36.77;18.79;100630.21;104247;1261;95950;-66
2023/08/11 10:12:46;;;;;;;9.40;2.50;;;;;;;36.95;18.96;100627.70;103752;1263;103787;-65
2023/08/11 10:15:17;;;;;;;3.50;1.60;;;;;;;37.12;18.98;100623.64;102792;1259;138348;-69
2023/08/11 10:17:46;;;;;;;2.60;2.30;;;;;;;37.46;19.39;100622.49;102796;1261;97818;-70
2023/08/11 10:20:14;;;;;;;4.40;1.70;;;;;;;37.74;19.45;100620.04;102669;1263;138188;-76
2023/08/11 10:22:44;;;;;;;4.80;1.80;;;;;;;37.78;19.37;100621.27;102832;1264;97781;-64
2023/08/11 10:25:18;;;;;;;3.10;1.70;;;;;;;37.03;19.10;100620.08;102838;1263;138215;-66
2023/08/11 10:27:48;;;;;;;3.20;1.50;;;;;;;35.93;19.19;100626.66;102843;1263;99420;-65
2023/08/11 10:30:20;;;;;;;3.60;1.30;;;;;;;35.29;19.28;100623.30;102823;1261;97832;-64
2023/08/11 10:32:57;;;;;;;3.00;1.30;;;;;;;35.01;19.36;100622.13;104170;1259;138346;-65
2023/08/11 10:35:33;;;;;;;2.30;1.60;;;;;;;34.51;19.41;100620.56;104273;1260;95889;-64
2023/08/11 10:38:01;;;;;;;3.20;1.30;;;;;;;34.05;20.01;100622.87;103467;1263;137733;-65
2023/08/11 10:40:35;;;;;;;3.30;1.50;;;;;;;33.47;20.48;100622.92;102875;1264;100132;-66
2023/08/11 10:43:08;;;;;;;2.40;1.40;;;;;;;32.56;20.88;100628.26;104153;1259;138823;-66
2023/08/11 10:45:41;;;;;;;2.70;1.20;;;;;;;31.59;21.51;100624.38;104286;1260;108603;-66
2023/08/11 10:48:24;;;;;;;4.20;1.20;;;;;;;31.43;22.34;100619.94;104147;1264;95902;-66
2023/08/11 10:50:54;;;;;;;3.50;1.60;;;;;;;31.39;22.52;100620.32;103507;1260;138778;-66
2023/08/11 10:53:23;;;;;;;3.50;1.50;;;;;;;31.06;22.62;100622.06;102851;1263;108935;-66
2023/08/11 10:56:00;;;;;;;3.80;1.10;;;;;;;30.55;23.04;100620.45;104243;1259;139083;-67
2023/08/11 10:58:32;;;;;;;1.90;1.40;;;;;;;30.43;23.43;100616.95;103249;1263;107370;-67
2023/08/11 11:01:00;;;;;;;2.80;1.60;;;;;;;30.50;23.60;100613.84;102824;1261;97791;-66
2023/08/11 11:03:28;;;;;;;3.50;1.60;;;;;;;30.28;23.31;100614.63;103087;1263;111882;-67
2023/08/11 11:05:56;;;;;;;7.00;2.30;;;;;;;29.88;23.77;100608.81;102853;1262;108933;-66
2023/08/11 11:08:23;;;;;;;3.10;1.70;;;;;;;29.66;24.39;100613.12;102773;1263;137832;-66
2023/08/11 11:10:52;;;;;;;4.20;1.80;;;;;;;29.20;24.46;100613.11;102844;1262;108619;-66
2023/08/11 11:13:19;;;;;;;3.50;1.50;;;;;;;28.73;24.69;100615.84;102833;1266;138127;-65
2023/08/11 11:16:02;;;;;;;3.20;1.40;;;;;;;28.51;25.20;100617.17;102794;1261;111777;-65